sensor_id;sensor_type;location;lat;lon;timestamp;temperature;humidity
15072;DHT22;7635;56.696;13.002;2023-11-19T00:02:19;0.10;99.90
15072;DHT22;7635;56.696;13.002;2023-11-19T00:04:47;0.10;99.90
15072;DHT22;7635;56.696;13.002;2023-11-19T00:07:14;0.10;99.90
15072;DHT22;7635;56.696;13.002;2023-11-19T00:09:41;0.10;99.90
15072;DHT22;7635;56.696;13.002;2023-11-19T00:12:09;0.10;99.90
15072;DHT22;7635;56.696;13.002;2023-11-19T00:14:35;0.10;99.90
15072;DHT22;7635;56.696;13.002;2023-11-19T00:17:04;0.10;99.90
15072;DHT22;7635;56.696;13.002;2023-11-19T00:19:30;0.10;99.90
15072;DHT22;7635;56.696;13.002;2023-11-19T00:21:57;0.20;99.90
15072;DHT22;7635;56.696;13.002;2023-11-19T00:24:28;0.20;99.90
15072;DHT22;7635;56.696;13.002;2023-11-19T00:26:54;0.10;99.90
15072;DHT22;7635;56.696;13.002;2023-11-19T00:29:21;0.20;99.90
15072;DHT22;7635;56.696;13.002;2023-11-19T00:31:48;0.20;99.90
15072;DHT22;7635;56.696;13.002;2023-11-19T00:34:16;0.20;99.90
15072;DHT22;7635;56.696;13.002;2023-11-19T00:36:47;0.30;99.90
15072;DHT22;7635;56.696;13.002;2023-11-19T00:39:13;0.30;99.90
15072;DHT22;7635;56.696;13.002;2023-11-19T00:41:41;0.30;99.90
15072;DHT22;7635;56.696;13.002;2023-11-19T00:44:08;0.30;99.90
15072;DHT22;7635;56.696;13.002;2023-11-19T00:46:34;0.30;99.90
15072;DHT22;7635;56.696;13.002;2023-11-19T00:49:02;0.30;99.90
15072;DHT22;7635;56.696;13.002;2023-11-19T00:51:30;0.30;99.90
15072;DHT22;7635;56.696;13.002;2023-11-19T00:53:56;0.40;99.90
15072;DHT22;7635;56.696;13.002;2023-11-19T00:56:24;0.40;99.90
15072;DHT22;7635;56.696;13.002;2023-11-19T00:58:51;0.40;99.90
15072;DHT22;7635;56.696;13.002;2023-11-19T01:01:17;0.40;99.90
15072;DHT22;7635;56.696;13.002;2023-11-19T01:03:44;0.50;99.90
15072;DHT22;7635;56.696;13.002;2023-11-19T01:06:11;0.50;99.90
15072;DHT22;7635;56.696;13.002;2023-11-19T01:08:42;0.60;99.90
15072;DHT22;7635;56.696;13.002;2023-11-19T01:11:09;0.60;99.90
15072;DHT22;7635;56.696;13.002;2023-11-19T01:13:35;0.60;99.90
15072;DHT22;7635;56.696;13.002;2023-11-19T01:16:02;0.60;99.90
15072;DHT22;7635;56.696;13.002;2023-11-19T01:18:29;0.60;99.90
15072;DHT22;7635;56.696;13.002;2023-11-19T01:20:56;0.60;99.90
15072;DHT22;7635;56.696;13.002;2023-11-19T01:23:22;0.70;99.90
15072;DHT22;7635;56.696;13.002;2023-11-19T01:25:50;0.70;99.90
15072;DHT22;7635;56.696;13.002;2023-11-19T01:28:17;0.70;99.90
15072;DHT22;7635;56.696;13.002;2023-11-19T01:30:44;0.70;99.90
15072;DHT22;7635;56.696;13.002;2023-11-19T01:33:11;0.70;99.90
15072;DHT22;7635;56.696;13.002;2023-11-19T01:35:37;0.70;99.90
15072;DHT22;7635;56.696;13.002;2023-11-19T01:38:04;0.80;99.90
15072;DHT22;7635;56.696;13.002;2023-11-19T01:40:31;0.80;99.90
15072;DHT22;7635;56.696;13.002;2023-11-19T01:42:59;0.80;99.90
15072;DHT22;7635;56.696;13.002;2023-11-19T01:45:28;0.80;99.90
15072;DHT22;7635;56.696;13.002;2023-11-19T01:47:56;0.80;99.90
15072;DHT22;7635;56.696;13.002;2023-11-19T01:50:23;0.80;99.90
15072;DHT22;7635;56.696;13.002;2023-11-19T01:52:51;0.80;99.90
15072;DHT22;7635;56.696;13.002;2023-11-19T01:55:19;0.90;99.90
15072;DHT22;7635;56.696;13.002;2023-11-19T01:57:46;0.90;99.90
15072;DHT22;7635;56.696;13.002;2023-11-19T02:00:16;0.90;99.90
15072;DHT22;7635;56.696;13.002;2023-11-19T02:02:43;0.90;99.90
15072;DHT22;7635;56.696;13.002;2023-11-19T02:05:12;0.90;99.90
15072;DHT22;7635;56.696;13.002;2023-11-19T02:07:39;0.90;99.90
15072;DHT22;7635;56.696;13.002;2023-11-19T02:10:06;0.90;99.90
15072;DHT22;7635;56.696;13.002;2023-11-19T02:12:38;0.90;99.90
15072;DHT22;7635;56.696;13.002;2023-11-19T02:15:08;1.00;99.90
15072;DHT22;7635;56.696;13.002;2023-11-19T02:17:37;1.00;99.90
15072;DHT22;7635;56.696;13.002;2023-11-19T02:20:04;1.00;99.90
15072;DHT22;7635;56.696;13.002;2023-11-19T02:22:34;1.00;99.90
15072;DHT22;7635;56.696;13.002;2023-11-19T02:25:07;1.00;99.90
15072;DHT22;7635;56.696;13.002;2023-11-19T02:27:47;1.00;99.90
15072;DHT22;7635;56.696;13.002;2023-11-19T02:30:14;1.00;99.90
15072;DHT22;7635;56.696;13.002;2023-11-19T02:32:42;1.00;99.90
15072;DHT22;7635;56.696;13.002;2023-11-19T02:35:08;1.00;99.90
15072;DHT22;7635;56.696;13.002;2023-11-19T02:37:35;1.00;99.90
15072;DHT22;7635;56.696;13.002;2023-11-19T02:40:02;1.00;99.90
15072;DHT22;7635;56.696;13.002;2023-11-19T02:42:31;1.00;99.90
15072;DHT22;7635;56.696;13.002;2023-11-19T02:44:59;1.00;99.90
15072;DHT22;7635;56.696;13.002;2023-11-19T02:47:25;1.00;99.90
15072;DHT22;7635;56.696;13.002;2023-11-19T02:49:54;1.00;99.90
15072;DHT22;7635;56.696;13.002;2023-11-19T02:52:20;1.00;99.90
15072;DHT22;7635;56.696;13.002;2023-11-19T02:54:47;1.00;99.90
15072;DHT22;7635;56.696;13.002;2023-11-19T02:57:14;1.00;99.90
15072;DHT22;7635;56.696;13.002;2023-11-19T02:59:40;1.00;99.90
15072;DHT22;7635;56.696;13.002;2023-11-19T03:02:10;1.00;99.90
15072;DHT22;7635;56.696;13.002;2023-11-19T03:04:37;1.00;99.90
15072;DHT22;7635;56.696;13.002;2023-11-19T03:07:05;1.00;99.90
15072;DHT22;7635;56.696;13.002;2023-11-19T03:09:32;1.00;99.90
15072;DHT22;7635;56.696;13.002;2023-11-19T03:12:00;1.10;99.90
15072;DHT22;7635;56.696;13.002;2023-11-19T03:14:26;1.10;99.90
15072;DHT22;7635;56.696;13.002;2023-11-19T03:16:53;1.10;99.90
15072;DHT22;7635;56.696;13.002;2023-11-19T03:19:21;1.10;99.90
15072;DHT22;7635;56.696;13.002;2023-11-19T03:21:48;1.10;99.90
15072;DHT22;7635;56.696;13.002;2023-11-19T03:24:15;1.10;99.90
15072;DHT22;7635;56.696;13.002;2023-11-19T03:26:42;1.10;99.90
15072;DHT22;7635;56.696;13.002;2023-11-19T03:29:09;1.10;99.90
15072;DHT22;7635;56.696;13.002;2023-11-19T03:31:35;1.10;99.90
15072;DHT22;7635;56.696;13.002;2023-11-19T03:34:03;1.10;99.90
15072;DHT22;7635;56.696;13.002;2023-11-19T03:36:34;1.10;99.90
15072;DHT22;7635;56.696;13.002;2023-11-19T03:39:01;1.20;99.90
15072;DHT22;7635;56.696;13.002;2023-11-19T03:41:29;1.20;99.90
15072;DHT22;7635;56.696;13.002;2023-11-19T03:43:56;1.20;99.90
15072;DHT22;7635;56.696;13.002;2023-11-19T03:46:22;1.30;99.90
15072;DHT22;7635;56.696;13.002;2023-11-19T03:48:50;1.20;99.90
15072;DHT22;7635;56.696;13.002;2023-11-19T03:51:16;1.30;99.90
15072;DHT22;7635;56.696;13.002;2023-11-19T03:53:45;1.30;99.90
15072;DHT22;7635;56.696;13.002;2023-11-19T03:56:12;1.30;99.90
15072;DHT22;7635;56.696;13.002;2023-11-19T03:58:39;1.30;99.90
15072;DHT22;7635;56.696;13.002;2023-11-19T04:01:07;1.40;99.90
15072;DHT22;7635;56.696;13.002;2023-11-19T04:03:37;1.40;99.90
15072;DHT22;7635;56.696;13.002;2023-11-19T04:06:04;1.40;99.90
15072;DHT22;7635;56.696;13.002;2023-11-19T04:08:31;1.40;99.90
15072;DHT22;7635;56.696;13.002;2023-11-19T04:11:00;1.40;99.90
15072;DHT22;7635;56.696;13.002;2023-11-19T04:13:27;1.40;99.90
15072;DHT22;7635;56.696;13.002;2023-11-19T04:15:54;1.40;99.90
15072;DHT22;7635;56.696;13.002;2023-11-19T04:18:20;1.50;99.90
15072;DHT22;7635;56.696;13.002;2023-11-19T04:20:47;1.50;99.90
15072;DHT22;7635;56.696;13.002;2023-11-19T04:23:14;1.50;99.90
15072;DHT22;7635;56.696;13.002;2023-11-19T04:25:40;1.50;99.90
15072;DHT22;7635;56.696;13.002;2023-11-19T04:28:08;1.60;99.90
15072;DHT22;7635;56.696;13.002;2023-11-19T04:30:35;1.60;99.90
15072;DHT22;7635;56.696;13.002;2023-11-19T04:33:02;1.60;99.90
15072;DHT22;7635;56.696;13.002;2023-11-19T04:35:29;1.70;99.90
15072;DHT22;7635;56.696;13.002;2023-11-19T04:37:56;1.70;99.90
15072;DHT22;7635;56.696;13.002;2023-11-19T04:40:23;1.70;99.90
15072;DHT22;7635;56.696;13.002;2023-11-19T04:42:50;1.70;99.90
15072;DHT22;7635;56.696;13.002;2023-11-19T04:45:18;1.70;99.90
15072;DHT22;7635;56.696;13.002;2023-11-19T04:47:45;1.70;99.90
15072;DHT22;7635;56.696;13.002;2023-11-19T04:50:12;1.70;99.90
15072;DHT22;7635;56.696;13.002;2023-11-19T04:52:39;1.70;99.90
15072;DHT22;7635;56.696;13.002;2023-11-19T04:55:08;1.70;99.90
15072;DHT22;7635;56.696;13.002;2023-11-19T04:57:37;1.80;99.90
15072;DHT22;7635;56.696;13.002;2023-11-19T05:00:04;1.80;99.90
15072;DHT22;7635;56.696;13.002;2023-11-19T05:02:34;1.90;99.90
15072;DHT22;7635;56.696;13.002;2023-11-19T05:05:01;1.80;99.90
15072;DHT22;7635;56.696;13.002;2023-11-19T05:07:29;1.90;99.90
15072;DHT22;7635;56.696;13.002;2023-11-19T05:09:56;1.90;99.90
15072;DHT22;7635;56.696;13.002;2023-11-19T05:12:22;1.90;99.90
15072;DHT22;7635;56.696;13.002;2023-11-19T05:14:49;1.90;99.90
15072;DHT22;7635;56.696;13.002;2023-11-19T05:17:16;1.90;99.90
15072;DHT22;7635;56.696;13.002;2023-11-19T05:19:45;1.90;99.90
15072;DHT22;7635;56.696;13.002;2023-11-19T05:22:13;1.90;99.90
15072;DHT22;7635;56.696;13.002;2023-11-19T05:24:40;1.90;99.90
15072;DHT22;7635;56.696;13.002;2023-11-19T05:27:07;2.00;99.90
15072;DHT22;7635;56.696;13.002;2023-11-19T05:29:34;2.00;99.90
15072;DHT22;7635;56.696;13.002;2023-11-19T05:32:00;2.00;99.90
15072;DHT22;7635;56.696;13.002;2023-11-19T05:34:27;2.00;99.90
15072;DHT22;7635;56.696;13.002;2023-11-19T05:36:55;2.00;99.90
15072;DHT22;7635;56.696;13.002;2023-11-19T05:39:22;2.00;99.90
15072;DHT22;7635;56.696;13.002;2023-11-19T05:41:50;2.10;99.90
15072;DHT22;7635;56.696;13.002;2023-11-19T05:44:17;2.10;99.90
15072;DHT22;7635;56.696;13.002;2023-11-19T05:46:43;2.10;99.90
15072;DHT22;7635;56.696;13.002;2023-11-19T05:49:11;2.10;99.90
15072;DHT22;7635;56.696;13.002;2023-11-19T05:51:38;2.10;99.90
15072;DHT22;7635;56.696;13.002;2023-11-19T05:54:08;2.10;99.90
15072;DHT22;7635;56.696;13.002;2023-11-19T05:56:36;2.20;99.90
15072;DHT22;7635;56.696;13.002;2023-11-19T05:59:03;2.20;99.90
15072;DHT22;7635;56.696;13.002;2023-11-19T06:01:33;2.20;99.90
15072;DHT22;7635;56.696;13.002;2023-11-19T06:04:00;2.30;99.90
15072;DHT22;7635;56.696;13.002;2023-11-19T06:06:27;2.30;99.90
15072;DHT22;7635;56.696;13.002;2023-11-19T06:08:54;2.30;99.90
15072;DHT22;7635;56.696;13.002;2023-11-19T06:11:23;2.30;99.90
15072;DHT22;7635;56.696;13.002;2023-11-19T06:13:52;2.30;99.90
15072;DHT22;7635;56.696;13.002;2023-11-19T06:16:19;2.30;99.90
15072;DHT22;7635;56.696;13.002;2023-11-19T06:18:46;2.30;99.90
15072;DHT22;7635;56.696;13.002;2023-11-19T06:21:13;2.30;99.90
15072;DHT22;7635;56.696;13.002;2023-11-19T06:23:39;2.40;99.90
15072;DHT22;7635;56.696;13.002;2023-11-19T06:26:06;2.40;99.90
15072;DHT22;7635;56.696;13.002;2023-11-19T06:28:35;2.40;99.90
15072;DHT22;7635;56.696;13.002;2023-11-19T06:31:02;2.40;99.90
15072;DHT22;7635;56.696;13.002;2023-11-19T06:33:29;2.40;99.90
15072;DHT22;7635;56.696;13.002;2023-11-19T06:35:56;2.40;99.90
15072;DHT22;7635;56.696;13.002;2023-11-19T06:38:22;2.40;99.90
15072;DHT22;7635;56.696;13.002;2023-11-19T06:40:49;2.40;99.90
15072;DHT22;7635;56.696;13.002;2023-11-19T06:43:16;2.50;99.90
15072;DHT22;7635;56.696;13.002;2023-11-19T06:45:44;2.50;99.90
15072;DHT22;7635;56.696;13.002;2023-11-19T06:48:11;2.50;99.90
15072;DHT22;7635;56.696;13.002;2023-11-19T06:50:38;2.50;99.90
15072;DHT22;7635;56.696;13.002;2023-11-19T06:53:04;2.60;99.90
15072;DHT22;7635;56.696;13.002;2023-11-19T06:55:35;2.50;99.90
15072;DHT22;7635;56.696;13.002;2023-11-19T06:58:02;2.50;99.90
15072;DHT22;7635;56.696;13.002;2023-11-19T07:00:29;2.50;99.90
15072;DHT22;7635;56.696;13.002;2023-11-19T07:02:59;2.60;99.90
15072;DHT22;7635;56.696;13.002;2023-11-19T07:05:25;2.60;99.90
15072;DHT22;7635;56.696;13.002;2023-11-19T07:07:53;2.60;99.90
15072;DHT22;7635;56.696;13.002;2023-11-19T07:10:21;2.60;99.90
15072;DHT22;7635;56.696;13.002;2023-11-19T07:12:47;2.60;99.90
15072;DHT22;7635;56.696;13.002;2023-11-19T07:15:15;2.60;99.90
15072;DHT22;7635;56.696;13.002;2023-11-19T07:17:43;2.70;99.90
15072;DHT22;7635;56.696;13.002;2023-11-19T07:20:15;2.70;99.90
15072;DHT22;7635;56.696;13.002;2023-11-19T07:22:43;2.70;99.90
15072;DHT22;7635;56.696;13.002;2023-11-19T07:25:11;2.70;99.90
15072;DHT22;7635;56.696;13.002;2023-11-19T07:27:37;2.80;99.90
15072;DHT22;7635;56.696;13.002;2023-11-19T07:30:06;2.80;99.90
15072;DHT22;7635;56.696;13.002;2023-11-19T07:32:33;2.80;99.90
15072;DHT22;7635;56.696;13.002;2023-11-19T07:34:59;2.90;99.90
15072;DHT22;7635;56.696;13.002;2023-11-19T07:37:27;2.80;99.90
15072;DHT22;7635;56.696;13.002;2023-11-19T07:39:54;2.90;99.90
15072;DHT22;7635;56.696;13.002;2023-11-19T07:42:21;2.90;99.90
15072;DHT22;7635;56.696;13.002;2023-11-19T07:44:48;2.90;99.90
15072;DHT22;7635;56.696;13.002;2023-11-19T07:47:15;2.90;99.90
15072;DHT22;7635;56.696;13.002;2023-11-19T07:49:41;2.90;99.90
15072;DHT22;7635;56.696;13.002;2023-11-19T07:52:09;3.00;99.90
15072;DHT22;7635;56.696;13.002;2023-11-19T07:54:37;3.00;99.90
15072;DHT22;7635;56.696;13.002;2023-11-19T07:57:04;3.00;99.90
15072;DHT22;7635;56.696;13.002;2023-11-19T07:59:30;3.10;99.90
15072;DHT22;7635;56.696;13.002;2023-11-19T08:01:57;3.10;99.90
15072;DHT22;7635;56.696;13.002;2023-11-19T08:04:24;3.10;99.90
15072;DHT22;7635;56.696;13.002;2023-11-19T08:06:51;3.20;99.90
15072;DHT22;7635;56.696;13.002;2023-11-19T08:09:17;3.20;99.90
15072;DHT22;7635;56.696;13.002;2023-11-19T08:11:45;3.30;99.90
15072;DHT22;7635;56.696;13.002;2023-11-19T08:14:12;3.30;99.90
15072;DHT22;7635;56.696;13.002;2023-11-19T08:16:39;3.30;99.90
15072;DHT22;7635;56.696;13.002;2023-11-19T08:19:06;3.40;99.90
15072;DHT22;7635;56.696;13.002;2023-11-19T08:21:34;3.40;99.90
15072;DHT22;7635;56.696;13.002;2023-11-19T08:24:00;3.40;99.90
15072;DHT22;7635;56.696;13.002;2023-11-19T08:26:27;3.40;99.90
15072;DHT22;7635;56.696;13.002;2023-11-19T08:28:55;3.50;99.90
15072;DHT22;7635;56.696;13.002;2023-11-19T08:31:24;3.50;99.90
15072;DHT22;7635;56.696;13.002;2023-11-19T08:33:51;3.50;99.90
15072;DHT22;7635;56.696;13.002;2023-11-19T08:36:18;3.50;99.90
15072;DHT22;7635;56.696;13.002;2023-11-19T08:38:45;3.50;99.90
15072;DHT22;7635;56.696;13.002;2023-11-19T08:41:12;3.60;99.90
15072;DHT22;7635;56.696;13.002;2023-11-19T08:43:38;3.60;99.90
15072;DHT22;7635;56.696;13.002;2023-11-19T08:46:10;3.60;99.90
15072;DHT22;7635;56.696;13.002;2023-11-19T08:48:37;3.60;99.90
15072;DHT22;7635;56.696;13.002;2023-11-19T08:51:05;3.60;99.90
15072;DHT22;7635;56.696;13.002;2023-11-19T08:53:31;3.70;99.90
15072;DHT22;7635;56.696;13.002;2023-11-19T08:55:58;3.60;99.90
15072;DHT22;7635;56.696;13.002;2023-11-19T08:58:25;3.70;99.90
15072;DHT22;7635;56.696;13.002;2023-11-19T09:00:52;3.70;99.90
15072;DHT22;7635;56.696;13.002;2023-11-19T09:03:20;3.70;99.90
15072;DHT22;7635;56.696;13.002;2023-11-19T09:05:47;3.80;99.90
15072;DHT22;7635;56.696;13.002;2023-11-19T09:08:14;3.80;99.90
15072;DHT22;7635;56.696;13.002;2023-11-19T09:10:40;3.80;99.90
15072;DHT22;7635;56.696;13.002;2023-11-19T09:13:07;3.90;99.90
15072;DHT22;7635;56.696;13.002;2023-11-19T09:15:34;3.90;99.90
15072;DHT22;7635;56.696;13.002;2023-11-19T09:18:00;3.90;99.90
15072;DHT22;7635;56.696;13.002;2023-11-19T09:20:28;4.00;99.90
15072;DHT22;7635;56.696;13.002;2023-11-19T09:23:03;4.00;99.90
15072;DHT22;7635;56.696;13.002;2023-11-19T09:25:29;4.00;99.90
15072;DHT22;7635;56.696;13.002;2023-11-19T09:27:56;4.10;99.90
15072;DHT22;7635;56.696;13.002;2023-11-19T09:30:23;4.10;99.90
15072;DHT22;7635;56.696;13.002;2023-11-19T09:32:49;4.10;99.90
15072;DHT22;7635;56.696;13.002;2023-11-19T09:35:16;4.10;99.90
15072;DHT22;7635;56.696;13.002;2023-11-19T09:37:44;4.10;99.90
15072;DHT22;7635;56.696;13.002;2023-11-19T09:40:11;4.10;99.90
15072;DHT22;7635;56.696;13.002;2023-11-19T09:42:43;4.20;99.90
15072;DHT22;7635;56.696;13.002;2023-11-19T09:45:13;4.20;99.90
15072;DHT22;7635;56.696;13.002;2023-11-19T09:47:40;4.20;99.90
15072;DHT22;7635;56.696;13.002;2023-11-19T09:50:08;4.20;99.90
15072;DHT22;7635;56.696;13.002;2023-11-19T09:52:35;4.20;99.90
15072;DHT22;7635;56.696;13.002;2023-11-19T09:55:04;4.20;99.90
15072;DHT22;7635;56.696;13.002;2023-11-19T09:57:32;4.20;99.90
15072;DHT22;7635;56.696;13.002;2023-11-19T10:00:02;4.20;99.90
15072;DHT22;7635;56.696;13.002;2023-11-19T10:02:31;4.20;99.90
15072;DHT22;7635;56.696;13.002;2023-11-19T10:04:59;4.30;99.90
15072;DHT22;7635;56.696;13.002;2023-11-19T10:07:27;4.30;99.90
15072;DHT22;7635;56.696;13.002;2023-11-19T10:09:54;4.30;99.90
15072;DHT22;7635;56.696;13.002;2023-11-19T10:12:23;4.30;99.90
15072;DHT22;7635;56.696;13.002;2023-11-19T10:14:50;4.30;99.90
15072;DHT22;7635;56.696;13.002;2023-11-19T10:17:17;4.30;99.90
15072;DHT22;7635;56.696;13.002;2023-11-19T10:19:44;4.30;99.90
15072;DHT22;7635;56.696;13.002;2023-11-19T10:22:11;4.30;99.90
15072;DHT22;7635;56.696;13.002;2023-11-19T10:24:39;4.40;99.90
15072;DHT22;7635;56.696;13.002;2023-11-19T10:27:08;4.40;99.90
15072;DHT22;7635;56.696;13.002;2023-11-19T10:29:37;4.40;99.90
15072;DHT22;7635;56.696;13.002;2023-11-19T10:32:04;4.40;99.90
15072;DHT22;7635;56.696;13.002;2023-11-19T10:34:31;4.40;99.90
15072;DHT22;7635;56.696;13.002;2023-11-19T10:36:58;4.40;99.90
15072;DHT22;7635;56.696;13.002;2023-11-19T10:42:15;4.40;99.90
15072;DHT22;7635;56.696;13.002;2023-11-19T10:44:44;4.40;99.90
15072;DHT22;7635;56.696;13.002;2023-11-19T10:47:12;4.50;99.90
15072;DHT22;7635;56.696;13.002;2023-11-19T10:49:40;4.50;99.90
15072;DHT22;7635;56.696;13.002;2023-11-19T10:52:08;4.50;99.90
15072;DHT22;7635;56.696;13.002;2023-11-19T10:54:35;4.50;99.90
15072;DHT22;7635;56.696;13.002;2023-11-19T10:57:05;4.50;99.90
15072;DHT22;7635;56.696;13.002;2023-11-19T10:59:34;4.50;99.90
15072;DHT22;7635;56.696;13.002;2023-11-19T11:02:07;4.50;99.90
15072;DHT22;7635;56.696;13.002;2023-11-19T11:04:39;4.60;99.90
15072;DHT22;7635;56.696;13.002;2023-11-19T11:07:07;4.60;99.90
15072;DHT22;7635;56.696;13.002;2023-11-19T11:09:35;4.60;99.90
15072;DHT22;7635;56.696;13.002;2023-11-19T11:12:03;4.60;99.90
15072;DHT22;7635;56.696;13.002;2023-11-19T11:14:30;4.60;99.90
15072;DHT22;7635;56.696;13.002;2023-11-19T11:17:03;4.60;99.90
15072;DHT22;7635;56.696;13.002;2023-11-19T11:19:33;4.60;99.90
15072;DHT22;7635;56.696;13.002;2023-11-19T11:22:00;4.60;99.90
15072;DHT22;7635;56.696;13.002;2023-11-19T11:24:50;4.70;99.90
15072;DHT22;7635;56.696;13.002;2023-11-19T11:27:38;4.70;99.90
15072;DHT22;7635;56.696;13.002;2023-11-19T11:30:20;4.70;99.90
15072;DHT22;7635;56.696;13.002;2023-11-19T11:32:58;4.70;99.90
15072;DHT22;7635;56.696;13.002;2023-11-19T11:35:33;4.70;99.90
15072;DHT22;7635;56.696;13.002;2023-11-19T11:38:06;4.70;99.90
15072;DHT22;7635;56.696;13.002;2023-11-19T11:40:33;4.70;99.90
15072;DHT22;7635;56.696;13.002;2023-11-19T11:43:01;4.70;99.90
15072;DHT22;7635;56.696;13.002;2023-11-19T11:45:38;4.70;99.90
15072;DHT22;7635;56.696;13.002;2023-11-19T11:48:15;4.70;99.90
15072;DHT22;7635;56.696;13.002;2023-11-19T11:50:50;4.70;99.90
15072;DHT22;7635;56.696;13.002;2023-11-19T11:53:17;4.70;99.90
15072;DHT22;7635;56.696;13.002;2023-11-19T11:55:55;4.70;99.90
15072;DHT22;7635;56.696;13.002;2023-11-19T11:58:32;4.70;99.90
15072;DHT22;7635;56.696;13.002;2023-11-19T12:01:01;4.70;99.90
15072;DHT22;7635;56.696;13.002;2023-11-19T12:03:31;4.70;99.90
15072;DHT22;7635;56.696;13.002;2023-11-19T12:05:58;4.70;99.90
15072;DHT22;7635;56.696;13.002;2023-11-19T12:08:27;4.70;99.90
15072;DHT22;7635;56.696;13.002;2023-11-19T12:10:55;4.70;99.90
15072;DHT22;7635;56.696;13.002;2023-11-19T12:13:23;4.60;99.90
15072;DHT22;7635;56.696;13.002;2023-11-19T12:16:10;4.60;99.90
15072;DHT22;7635;56.696;13.002;2023-11-19T12:18:39;4.60;99.90
15072;DHT22;7635;56.696;13.002;2023-11-19T12:21:06;4.60;99.90
15072;DHT22;7635;56.696;13.002;2023-11-19T12:23:35;4.60;99.90
15072;DHT22;7635;56.696;13.002;2023-11-19T12:26:01;4.60;99.90
15072;DHT22;7635;56.696;13.002;2023-11-19T12:28:29;4.60;99.90
15072;DHT22;7635;56.696;13.002;2023-11-19T12:31:07;4.60;99.90
15072;DHT22;7635;56.696;13.002;2023-11-19T12:33:36;4.60;99.90
15072;DHT22;7635;56.696;13.002;2023-11-19T12:36:05;4.60;99.90
15072;DHT22;7635;56.696;13.002;2023-11-19T12:38:33;4.60;99.90
15072;DHT22;7635;56.696;13.002;2023-11-19T12:41:03;4.60;99.90
15072;DHT22;7635;56.696;13.002;2023-11-19T12:43:30;4.60;99.90
15072;DHT22;7635;56.696;13.002;2023-11-19T12:45:57;4.60;99.90
15072;DHT22;7635;56.696;13.002;2023-11-19T12:48:24;4.60;99.90
15072;DHT22;7635;56.696;13.002;2023-11-19T12:50:51;4.60;99.90
15072;DHT22;7635;56.696;13.002;2023-11-19T12:53:20;4.60;99.90
15072;DHT22;7635;56.696;13.002;2023-11-19T12:55:46;4.60;99.90
15072;DHT22;7635;56.696;13.002;2023-11-19T12:58:28;4.60;99.90
15072;DHT22;7635;56.696;13.002;2023-11-19T13:00:59;4.60;99.90
15072;DHT22;7635;56.696;13.002;2023-11-19T13:03:30;4.50;99.90
15072;DHT22;7635;56.696;13.002;2023-11-19T13:06:01;4.60;99.90
15072;DHT22;7635;56.696;13.002;2023-11-19T13:08:36;4.50;99.90
15072;DHT22;7635;56.696;13.002;2023-11-19T13:11:03;4.50;99.90
15072;DHT22;7635;56.696;13.002;2023-11-19T13:13:31;4.50;99.90
15072;DHT22;7635;56.696;13.002;2023-11-19T13:16:02;4.50;99.90
15072;DHT22;7635;56.696;13.002;2023-11-19T13:18:30;4.50;99.90
15072;DHT22;7635;56.696;13.002;2023-11-19T13:20:57;4.50;99.90
15072;DHT22;7635;56.696;13.002;2023-11-19T13:23:24;4.50;99.90
15072;DHT22;7635;56.696;13.002;2023-11-19T13:25:52;4.50;99.90
15072;DHT22;7635;56.696;13.002;2023-11-19T13:28:19;4.50;99.90
15072;DHT22;7635;56.696;13.002;2023-11-19T13:30:45;4.50;99.90
15072;DHT22;7635;56.696;13.002;2023-11-19T13:33:12;4.50;99.90
15072;DHT22;7635;56.696;13.002;2023-11-19T13:35:39;4.50;99.90
15072;DHT22;7635;56.696;13.002;2023-11-19T13:38:06;4.50;99.90
15072;DHT22;7635;56.696;13.002;2023-11-19T13:40:34;4.50;99.90
15072;DHT22;7635;56.696;13.002;2023-11-19T13:43:02;4.50;99.90
15072;DHT22;7635;56.696;13.002;2023-11-19T13:45:29;4.50;99.90
15072;DHT22;7635;56.696;13.002;2023-11-19T13:47:55;4.50;99.90
15072;DHT22;7635;56.696;13.002;2023-11-19T13:50:22;4.50;99.90
15072;DHT22;7635;56.696;13.002;2023-11-19T13:52:49;4.50;99.90
15072;DHT22;7635;56.696;13.002;2023-11-19T13:55:16;4.50;99.90
15072;DHT22;7635;56.696;13.002;2023-11-19T13:57:43;4.50;99.90
15072;DHT22;7635;56.696;13.002;2023-11-19T14:00:12;4.50;99.90
15072;DHT22;7635;56.696;13.002;2023-11-19T14:02:42;4.50;99.90
15072;DHT22;7635;56.696;13.002;2023-11-19T14:05:09;4.40;99.90
15072;DHT22;7635;56.696;13.002;2023-11-19T14:07:37;4.40;99.90
15072;DHT22;7635;56.696;13.002;2023-11-19T14:10:04;4.50;99.90
15072;DHT22;7635;56.696;13.002;2023-11-19T14:12:32;4.50;99.90
15072;DHT22;7635;56.696;13.002;2023-11-19T14:14:58;4.50;99.90
15072;DHT22;7635;56.696;13.002;2023-11-19T14:17:27;4.40;99.90
15072;DHT22;7635;56.696;13.002;2023-11-19T14:19:53;4.40;99.90
15072;DHT22;7635;56.696;13.002;2023-11-19T14:22:20;4.40;99.90
15072;DHT22;7635;56.696;13.002;2023-11-19T14:24:47;4.40;99.90
15072;DHT22;7635;56.696;13.002;2023-11-19T14:27:13;4.40;99.90
15072;DHT22;7635;56.696;13.002;2023-11-19T14:29:41;4.40;99.90
15072;DHT22;7635;56.696;13.002;2023-11-19T14:32:08;4.40;99.90
15072;DHT22;7635;56.696;13.002;2023-11-19T14:34:36;4.40;99.90
15072;DHT22;7635;56.696;13.002;2023-11-19T14:37:03;4.40;99.90
15072;DHT22;7635;56.696;13.002;2023-11-19T14:39:30;4.40;99.90
15072;DHT22;7635;56.696;13.002;2023-11-19T14:41:57;4.40;99.90
15072;DHT22;7635;56.696;13.002;2023-11-19T14:44:26;4.40;99.90
15072;DHT22;7635;56.696;13.002;2023-11-19T14:46:54;4.40;99.90
15072;DHT22;7635;56.696;13.002;2023-11-19T14:49:21;4.40;99.90
15072;DHT22;7635;56.696;13.002;2023-11-19T14:51:50;4.40;99.90
15072;DHT22;7635;56.696;13.002;2023-11-19T14:54:17;4.40;99.90
15072;DHT22;7635;56.696;13.002;2023-11-19T14:56:44;4.30;99.90
15072;DHT22;7635;56.696;13.002;2023-11-19T14:59:10;4.30;99.90
15072;DHT22;7635;56.696;13.002;2023-11-19T15:01:37;4.30;99.90
15072;DHT22;7635;56.696;13.002;2023-11-19T15:04:05;4.30;99.90
15072;DHT22;7635;56.696;13.002;2023-11-19T15:06:32;4.30;99.90
15072;DHT22;7635;56.696;13.002;2023-11-19T15:09:00;4.30;99.90
15072;DHT22;7635;56.696;13.002;2023-11-19T15:11:27;4.30;99.90
15072;DHT22;7635;56.696;13.002;2023-11-19T15:13:54;4.30;99.90
15072;DHT22;7635;56.696;13.002;2023-11-19T15:16:20;4.30;99.90
15072;DHT22;7635;56.696;13.002;2023-11-19T15:18:56;4.30;99.90
15072;DHT22;7635;56.696;13.002;2023-11-19T15:21:24;4.20;99.90
15072;DHT22;7635;56.696;13.002;2023-11-19T15:23:51;4.20;99.90
15072;DHT22;7635;56.696;13.002;2023-11-19T15:26:20;4.20;99.90
15072;DHT22;7635;56.696;13.002;2023-11-19T15:28:47;4.20;99.90
15072;DHT22;7635;56.696;13.002;2023-11-19T15:31:13;4.20;99.90
15072;DHT22;7635;56.696;13.002;2023-11-19T15:33:41;4.20;99.90
15072;DHT22;7635;56.696;13.002;2023-11-19T15:36:08;4.10;99.90
15072;DHT22;7635;56.696;13.002;2023-11-19T15:38:35;4.10;99.90
15072;DHT22;7635;56.696;13.002;2023-11-19T15:41:02;4.10;99.90
15072;DHT22;7635;56.696;13.002;2023-11-19T15:43:31;4.10;99.90
15072;DHT22;7635;56.696;13.002;2023-11-19T15:45:58;4.10;99.90
15072;DHT22;7635;56.696;13.002;2023-11-19T15:48:24;4.00;99.90
15072;DHT22;7635;56.696;13.002;2023-11-19T15:50:52;4.00;99.90
15072;DHT22;7635;56.696;13.002;2023-11-19T15:53:18;4.00;99.90